createdAt,value
2022-07-30T00:02:50.716Z,94.10
2022-07-30T00:06:53.578Z,94.90
2022-07-30T00:10:57.705Z,94.70
2022-07-30T00:15:00.524Z,94.90
2022-07-30T00:19:03.889Z,95.00
2022-07-30T00:23:06.773Z,95.20
2022-07-30T00:27:10.874Z,95.10
2022-07-30T00:31:13.706Z,95.20
2022-07-30T00:35:16.595Z,95.10
2022-07-30T00:39:21.029Z,94.90
2022-07-30T00:43:25.207Z,95.10
2022-07-30T00:47:28.086Z,94.90
2022-07-30T00:51:30.889Z,94.70
2022-07-30T00:55:34.820Z,94.90
2022-07-30T00:59:38.947Z,95.50
2022-07-30T01:03:41.711Z,95.80
2022-07-30T01:07:44.988Z,96.30
2022-07-30T01:11:48.057Z,96.60
2022-07-30T01:15:52.296Z,96.70
2022-07-30T01:19:59.982Z,96.80
2022-07-30T01:24:19.839Z,96.80
2022-07-30T01:28:27.967Z,96.80
2022-07-30T01:32:34.200Z,97.10
2022-07-30T01:36:38.184Z,97.10
2022-07-30T01:40:43.783Z,97.10
2022-07-30T01:44:49.246Z,96.70
2022-07-30T01:48:52.803Z,96.90
2022-07-30T01:52:57.224Z,96.80
2022-07-30T01:57:03.523Z,96.80
2022-07-30T02:01:08.544Z,96.80
2022-07-30T02:05:12.041Z,96.80
2022-07-30T02:09:18.824Z,96.90
2022-07-30T02:13:26.977Z,96.90
2022-07-30T02:17:42.980Z,97.10
2022-07-30T02:21:51.053Z,97.20
2022-07-30T02:25:54.400Z,97.20
2022-07-30T02:30:01.403Z,96.90
2022-07-30T02:34:07.646Z,96.80
2022-07-30T02:38:14.299Z,96.60
2022-07-30T02:42:18.884Z,96.80
2022-07-30T02:46:27.298Z,96.90
2022-07-30T02:50:52.862Z,97.20
2022-07-30T02:54:58.115Z,97.10
2022-07-30T02:59:04.466Z,97.10
2022-07-30T03:03:08.692Z,97.00
2022-07-30T03:07:16.023Z,96.90
2022-07-30T03:11:19.916Z,97.10
2022-07-30T03:15:23.074Z,96.90
2022-07-30T03:19:28.989Z,97.00
2022-07-30T03:23:34.793Z,97.10
2022-07-30T03:27:39.299Z,96.90
2022-07-30T03:31:42.547Z,97.20
2022-07-30T03:35:49.239Z,97.10
2022-07-30T03:39:54.859Z,97.20
2022-07-30T03:43:58.233Z,97.10
2022-07-30T03:48:01.892Z,96.90
2022-07-30T03:52:08.721Z,96.80
2022-07-30T03:56:14.999Z,96.60
2022-07-30T04:00:36.691Z,96.50
2022-07-30T04:04:42.641Z,96.50
2022-07-30T04:08:45.518Z,96.40
2022-07-30T04:12:49.677Z,96.30
2022-07-30T04:17:00.500Z,96.50
2022-07-30T04:21:06.310Z,96.40
2022-07-30T04:25:10.345Z,96.30
2022-07-30T04:29:29.457Z,96.70
2022-07-30T04:33:33.804Z,96.40
2022-07-30T04:37:55.186Z,96.40
2022-07-30T04:41:58.019Z,96.40
2022-07-30T04:46:12.405Z,96.40
2022-07-30T04:50:17.740Z,96.40
2022-07-30T04:54:25.168Z,96.10
2022-07-30T04:58:30.946Z,95.90
2022-07-30T05:02:38.638Z,95.80
2022-07-30T05:06:42.750Z,95.50
2022-07-30T05:10:45.764Z,95.40
2022-07-30T05:14:49.829Z,95.40
2022-07-30T05:18:55.049Z,95.40
2022-07-30T05:22:57.908Z,95.20
2022-07-30T05:27:01.522Z,95.10
2022-07-30T05:31:08.109Z,95.20
2022-07-30T05:35:13.930Z,94.90
2022-07-30T05:39:17.186Z,94.70
2022-07-30T05:43:45.727Z,94.60
2022-07-30T05:47:59.150Z,94.50
2022-07-30T05:52:05.543Z,94.40
2022-07-30T05:56:12.683Z,94.30
2022-07-30T06:00:31.378Z,94.30
2022-07-30T06:04:36.890Z,94.10
2022-07-30T06:08:50.314Z,93.90
2022-07-30T06:12:53.153Z,93.60
2022-07-30T06:16:56.050Z,93.80
2022-07-30T06:21:01.431Z,93.30
2022-07-30T06:25:24.184Z,93.30
2022-07-30T06:29:27.410Z,92.60
2022-07-30T06:33:30.323Z,92.20
2022-07-30T06:37:58.728Z,92.00
2022-07-30T06:42:00.567Z,92.00
2022-07-30T06:46:06.411Z,92.20
2022-07-30T06:50:14.234Z,91.20
2022-07-30T06:54:17.106Z,91.20
2022-07-30T06:58:53.491Z,90.80
2022-07-30T07:03:14.790Z,90.50
2022-07-30T07:07:37.157Z,90.10
2022-07-30T07:11:40.851Z,90.00
2022-07-30T07:15:48.617Z,90.00
2022-07-30T07:20:00.807Z,88.90
2022-07-30T07:24:09.542Z,88.30
2022-07-30T07:28:33.657Z,87.60
2022-07-30T07:32:38.611Z,82.80
2022-07-30T07:36:41.465Z,79.40
2022-07-30T07:40:44.520Z,76.00
2022-07-30T07:44:47.717Z,70.60
2022-07-30T07:48:52.317Z,66.50
2022-07-30T07:53:10.644Z,59.40
2022-07-30T07:57:14.738Z,60.10
2022-07-30T08:01:19.009Z,58.70
2022-07-30T08:05:59.042Z,58.30
2022-07-30T08:10:23.599Z,57.70
2022-07-30T08:14:44.917Z,58.80
2022-07-30T08:19:19.819Z,59.70
2022-07-30T08:23:49.071Z,62.80
2022-07-30T08:27:52.715Z,62.00
2022-07-30T08:31:56.206Z,61.70
2022-07-30T08:36:09.104Z,60.90
2022-07-30T08:40:14.957Z,60.60
2022-07-30T08:44:29.583Z,60.60
2022-07-30T08:48:34.723Z,59.60
2022-07-30T08:52:38.770Z,60.40
2022-07-30T08:56:45.168Z,61.90
2022-07-30T09:00:48.017Z,61.20
2022-07-30T09:04:50.883Z,60.80
2022-07-30T09:08:54.538Z,61.10
2022-07-30T09:12:58.865Z,62.10
2022-07-30T09:21:17.069Z,61.30
2022-07-30T09:25:38.033Z,60.80
2022-07-30T09:30:02.131Z,60.00
2022-07-30T09:34:28.855Z,61.40
2022-07-30T09:38:46.117Z,59.60
2022-07-30T09:43:09.931Z,59.80
2022-07-30T09:47:35.089Z,59.20
2022-07-30T09:51:56.124Z,58.20
2022-07-30T09:56:25.591Z,58.30
2022-07-30T10:00:31.522Z,57.50
2022-07-30T10:05:13.914Z,56.00
2022-07-30T10:09:27.359Z,56.30
2022-07-30T10:13:33.439Z,55.30
2022-07-30T10:17:39.711Z,56.40
2022-07-30T10:21:58.344Z,54.90
2022-07-30T10:26:21.341Z,55.10
2022-07-30T10:30:42.863Z,55.20
2022-07-30T10:34:45.897Z,55.60
2022-07-30T10:38:52.875Z,55.00
2022-07-30T10:43:07.684Z,55.00
2022-07-30T10:47:16.274Z,54.20
2022-07-30T10:51:34.778Z,53.70
2022-07-30T10:55:41.835Z,54.40
2022-07-30T11:00:15.497Z,54.90
2022-07-30T11:04:20.847Z,53.70
2022-07-30T11:08:35.812Z,54.40
2022-07-30T11:12:57.162Z,53.30
2022-07-30T11:17:01.080Z,52.90
2022-07-30T11:21:20.761Z,52.90
2022-07-30T11:25:51.643Z,52.70
2022-07-30T11:29:58.734Z,52.50
2022-07-30T11:34:26.295Z,52.90
2022-07-30T11:38:49.114Z,52.70
2022-07-30T11:42:53.084Z,52.40
2022-07-30T11:46:57.392Z,52.50
2022-07-30T11:51:03.795Z,52.40
2022-07-30T11:55:07.537Z,50.70
2022-07-30T11:59:10.334Z,51.60
2022-07-30T12:03:16.838Z,51.50
2022-07-30T12:07:23.695Z,51.80
2022-07-30T12:11:26.953Z,51.00
2022-07-30T12:15:31.617Z,50.60
2022-07-30T12:19:47.782Z,51.00
2022-07-30T12:23:57.761Z,51.10
2022-07-30T12:28:00.559Z,50.50
2022-07-30T12:32:03.502Z,50.10
2022-07-30T12:36:08.176Z,50.90
2022-07-30T12:40:14.986Z,50.60
2022-07-30T12:44:41.563Z,50.80
2022-07-30T12:48:55.520Z,49.90
2022-07-30T12:52:59.725Z,50.50
2022-07-30T12:57:06.025Z,50.70
2022-07-30T13:01:10.132Z,49.80
2022-07-30T13:05:13.099Z,49.60
2022-07-30T13:09:22.446Z,49.00
2022-07-30T13:13:25.345Z,48.50
2022-07-30T13:17:28.162Z,49.00
2022-07-30T13:21:31.961Z,49.60
2022-07-30T13:25:38.851Z,49.20
2022-07-30T13:29:43.435Z,48.80
2022-07-30T13:33:46.512Z,49.50
2022-07-30T13:37:49.465Z,49.10
2022-07-30T13:41:53.750Z,48.00
2022-07-30T13:45:57.638Z,48.10
2022-07-30T13:50:02.997Z,47.70
2022-07-30T13:54:07.300Z,46.20
2022-07-30T13:58:11.559Z,46.60
2022-07-30T14:02:14.702Z,45.00
2022-07-30T14:06:17.623Z,45.40
2022-07-30T14:10:22.168Z,44.70
2022-07-30T14:14:26.502Z,44.60
2022-07-30T14:18:29.827Z,43.40
2022-07-30T14:22:32.909Z,43.20
2022-07-30T14:26:36.552Z,42.00
2022-07-30T14:30:41.033Z,42.00
2022-07-30T14:34:49.150Z,40.90
2022-07-30T14:38:56.404Z,41.40
2022-07-30T14:42:59.656Z,40.60
2022-07-30T14:47:04.260Z,40.60
2022-07-30T14:51:17.728Z,40.60
2022-07-30T14:55:23.701Z,40.40
2022-07-30T14:59:27.359Z,40.90
2022-07-30T15:03:31.524Z,40.90
2022-07-30T15:07:34.851Z,40.30
2022-07-30T15:12:04.256Z,39.80
2022-07-30T15:16:00.873Z,39.60
2022-07-30T15:20:07.846Z,39.10
2022-07-30T15:24:10.649Z,39.40
2022-07-30T15:28:13.397Z,39.40
2022-07-30T15:32:17.200Z,39.20
2022-07-30T15:36:21.390Z,39.30
2022-07-30T15:40:24.253Z,38.60
2022-07-30T15:44:27.414Z,38.50
2022-07-30T15:48:30.505Z,39.40
2022-07-30T15:52:36.309Z,39.00
2022-07-30T15:56:39.098Z,38.80
2022-07-30T16:00:41.948Z,38.50
2022-07-30T16:04:48.313Z,38.40
2022-07-30T16:08:52.557Z,38.80
2022-07-30T16:12:55.346Z,39.20
2022-07-30T16:16:59.499Z,39.40
2022-07-30T16:21:02.777Z,39.60
2022-07-30T16:25:07.578Z,40.00
2022-07-30T16:29:13.735Z,39.80
2022-07-30T16:33:16.947Z,40.00
2022-07-30T16:37:20.004Z,40.80
2022-07-30T16:41:24.178Z,41.10
2022-07-30T16:45:27.661Z,40.80
2022-07-30T16:49:31.149Z,41.20
2022-07-30T16:53:34.376Z,41.50
2022-07-30T16:57:38.532Z,42.00
2022-07-30T17:01:41.382Z,42.90
2022-07-30T17:05:45.222Z,43.30
2022-07-30T17:09:51.923Z,43.20
2022-07-30T17:13:56.702Z,43.70
2022-07-30T17:17:59.560Z,43.40
2022-07-30T17:22:04.213Z,43.50
2022-07-30T17:26:13.866Z,43.10
2022-07-30T17:30:18.417Z,43.50
2022-07-30T17:34:21.299Z,44.20
2022-07-30T17:38:24.178Z,44.40
2022-07-30T17:42:26.953Z,43.30
2022-07-30T17:46:34.138Z,43.20
2022-07-30T17:50:37.531Z,43.70
2022-07-30T17:54:40.307Z,43.60
2022-07-30T17:58:51.205Z,43.30
2022-07-30T18:02:55.508Z,44.10
2022-07-30T18:06:58.225Z,44.20
2022-07-30T18:11:23.951Z,43.90
2022-07-30T18:15:54.006Z,44.60
2022-07-30T18:19:58.141Z,44.50
2022-07-30T18:24:02.421Z,44.80
2022-07-30T18:28:06.017Z,45.50
2022-07-30T18:32:09.457Z,45.60
2022-07-30T18:36:13.591Z,46.20
2022-07-30T18:40:23.732Z,46.40
2022-07-30T18:44:26.829Z,47.00
2022-07-30T18:48:29.645Z,47.70
2022-07-30T18:52:35.409Z,48.10
2022-07-30T18:56:38.176Z,48.30
2022-07-30T19:00:43.864Z,49.00
2022-07-30T19:04:46.868Z,49.20
2022-07-30T19:08:51.007Z,50.30
2022-07-30T19:12:54.144Z,50.60
2022-07-30T19:16:59.409Z,50.80
2022-07-30T19:21:03.853Z,51.60
2022-07-30T19:25:09.526Z,52.10
2022-07-30T19:29:12.364Z,52.70
2022-07-30T19:33:15.953Z,52.50
2022-07-30T19:37:18.760Z,53.40
2022-07-30T19:41:22.942Z,53.50
2022-07-30T19:45:26.184Z,54.00
2022-07-30T19:49:48.960Z,54.40
2022-07-30T19:53:52.001Z,54.50
2022-07-30T19:57:56.419Z,54.10
2022-07-30T20:01:59.177Z,54.40
2022-07-30T20:06:02.497Z,54.40
2022-07-30T20:10:06.717Z,55.10
2022-07-30T20:14:11.158Z,54.90
2022-07-30T20:18:19.179Z,54.90
2022-07-30T20:22:32.566Z,55.40
2022-07-30T20:26:36.898Z,55.40
2022-07-30T20:30:41.070Z,55.90
2022-07-30T20:34:43.993Z,56.30
2022-07-30T20:38:49.270Z,56.70
2022-07-30T20:42:53.368Z,56.80
2022-07-30T20:46:59.770Z,57.20
2022-07-30T20:51:02.892Z,57.90
2022-07-30T20:55:08.509Z,57.80
2022-07-30T20:59:12.001Z,57.70
2022-07-30T21:03:17.035Z,57.90
2022-07-30T21:07:20.860Z,58.10
2022-07-30T21:11:23.733Z,58.40
2022-07-30T21:15:26.687Z,59.00
2022-07-30T21:19:36.534Z,59.40
2022-07-30T21:23:39.741Z,59.80
2022-07-30T21:27:42.850Z,59.40
2022-07-30T21:32:00.553Z,59.80
2022-07-30T21:36:11.458Z,60.10
2022-07-30T21:40:15.112Z,59.30
2022-07-30T21:44:18.054Z,58.50
2022-07-30T21:48:20.891Z,58.10
2022-07-30T21:52:25.780Z,58.10
2022-07-30T21:56:28.595Z,58.60
2022-07-30T22:00:44.578Z,58.10
2022-07-30T22:04:47.541Z,58.70
2022-07-30T22:08:55.390Z,59.00
2022-07-30T22:12:58.429Z,60.00
2022-07-30T22:17:01.320Z,60.20
2022-07-30T22:21:07.328Z,60.40
2022-07-30T22:25:11.994Z,60.80
2022-07-30T22:29:15.410Z,60.10
2022-07-30T22:33:19.754Z,61.00
2022-07-30T22:37:22.763Z,61.20
2022-07-30T22:41:28.989Z,61.20
2022-07-30T22:45:48.150Z,61.60
2022-07-30T22:49:56.156Z,61.70
2022-07-30T22:54:12.556Z,62.10
2022-07-30T22:58:17.455Z,63.00
2022-07-30T23:02:23.314Z,63.70
2022-07-30T23:06:30.618Z,63.90
2022-07-30T23:10:33.957Z,63.90
2022-07-30T23:14:38.162Z,63.50
2022-07-30T23:18:40.991Z,63.50
2022-07-30T23:22:43.789Z,63.10
2022-07-30T23:26:47.926Z,64.90
2022-07-30T23:30:54.574Z,64.10
2022-07-30T23:34:57.441Z,63.60
2022-07-30T23:39:00.451Z,63.20
2022-07-30T23:43:03.252Z,63.20
2022-07-30T23:47:07.629Z,62.80
2022-07-30T23:51:10.419Z,64.10
2022-07-30T23:55:13.228Z,64.80
2022-07-30T23:59:16.178Z,65.40
